Time;durP1;ratioP1;P1;durP2;ratioP2;P2;SDS_P1;SDS_P2;PMS_P1;PMS_P2;Temp;Humidity;BMP_temperature;BMP_pressure;BME280_temperature;BME280_humidity;BME280_pressure;Samples;Min_cycle;Max_cycle;Signal;HPM_P1;HPM_P2
2023/09/19 00:00:15;;;;;;;12.40;3.17;;;;;;;14.39;100.00;100706.13;5044649;28;20056;-76
2023/09/19 00:02:40;;;;;;;16.63;3.72;;;;;;;14.39;100.00;100698.19;5029572;28;20027;-78
2023/09/19 00:05:07;;;;;;;17.08;3.78;;;;;;;14.38;100.00;100707.09;5028645;28;20493;-78
2023/09/19 00:07:32;;;;;;;16.63;4.28;;;;;;;14.37;100.00;100716.03;5020940;28;20041;-76
2023/09/19 00:09:58;;;;;;;11.93;3.33;;;;;;;14.33;100.00;100712.00;5024106;28;20025;-76
2023/09/19 00:12:23;;;;;;;16.95;3.97;;;;;;;14.31;100.00;100716.59;5028700;28;20091;-76
2023/09/19 00:14:49;;;;;;;15.35;3.47;;;;;;;14.28;100.00;100716.88;5030769;28;20021;-75
2023/09/19 00:17:16;;;;;;;12.65;3.47;;;;;;;14.30;100.00;100720.22;5030405;28;21683;-76
2023/09/19 00:19:46;;;;;;;17.05;4.03;;;;;;;14.26;100.00;100724.13;5028980;28;20155;-76
2023/09/19 00:22:13;;;;;;;12.75;3.63;;;;;;;14.23;100.00;100729.69;5028024;28;20061;-76
2023/09/19 00:24:38;;;;;;;14.52;3.92;;;;;;;14.22;100.00;100730.66;5014983;28;20037;-75
2023/09/19 00:27:05;;;;;;;20.60;4.43;;;;;;;14.22;100.00;100728.03;5015093;28;20388;-76
2023/09/19 00:29:35;;;;;;;16.55;3.40;;;;;;;14.17;100.00;100735.56;5026904;28;20485;-76
2023/09/19 00:32:02;;;;;;;13.45;3.97;;;;;;;14.18;100.00;100744.31;5031946;28;20033;-76
2023/09/19 00:34:29;;;;;;;19.67;3.80;;;;;;;14.16;100.00;100743.63;5034478;28;20025;-76
2023/09/19 00:36:55;;;;;;;15.20;3.58;;;;;;;14.15;100.00;100742.78;5049272;28;20031;-75
2023/09/19 00:39:21;;;;;;;13.38;3.30;;;;;;;14.14;100.00;100745.56;5035599;28;20035;-76
2023/09/19 00:41:47;;;;;;;12.27;3.60;;;;;;;14.11;100.00;100757.28;5030248;28;20493;-76
2023/09/19 00:44:13;;;;;;;14.15;3.65;;;;;;;14.10;100.00;100752.97;5035229;28;20056;-77
2023/09/19 00:46:40;;;;;;;12.10;3.08;;;;;;;14.07;100.00;100761.19;5034444;28;20044;-78
2023/09/19 00:49:09;;;;;;;12.15;3.15;;;;;;;14.07;100.00;100762.00;5033553;28;20064;-76
2023/09/19 00:51:35;;;;;;;17.48;4.03;;;;;;;14.02;100.00;100758.94;5032557;28;20079;-78
2023/09/19 00:54:02;;;;;;;17.63;3.25;;;;;;;14.00;100.00;100765.31;5032824;28;20136;-76
2023/09/19 00:56:28;;;;;;;14.15;3.65;;;;;;;13.98;100.00;100768.09;5031110;28;20033;-76
2023/09/19 00:58:53;;;;;;;14.48;4.07;;;;;;;13.98;100.00;100772.56;5016769;28;20029;-76
2023/09/19 01:01:19;;;;;;;11.63;3.35;;;;;;;13.96;100.00;100774.50;5023544;28;20041;-78
2023/09/19 01:03:45;;;;;;;15.38;3.83;;;;;;;13.95;100.00;100781.59;5032365;28;20112;-76
2023/09/19 01:06:10;;;;;;;11.77;3.45;;;;;;;13.94;100.00;100777.28;5033021;28;20108;-76
2023/09/19 01:08:39;;;;;;;15.65;3.75;;;;;;;13.87;100.00;100783.25;5033278;28;20056;-76
2023/09/19 01:11:39;;;;;;;13.48;3.72;;;;;;;13.92;100.00;100787.16;5030197;28;20040;-78
2023/09/19 01:14:07;;;;;;;15.55;3.90;;;;;;;13.84;100.00;100783.53;5032463;28;20474;-76
2023/09/19 01:16:45;;;;;;;14.68;3.80;;;;;;;13.82;100.00;100788.97;5032473;28;20100;-76
2023/09/19 01:19:46;;;;;;;17.35;3.47;;;;;;;13.85;100.00;100787.84;5033088;28;20052;-78
2023/09/19 01:22:29;;;;;;;14.52;3.63;;;;;;;13.82;100.00;100794.25;5032141;28;20506;-76
2023/09/19 01:25:03;;;;;;;10.68;3.03;;;;;;;13.80;100.00;100798.84;5043842;28;20367;-76
2023/09/19 01:28:26;;;;;;;14.75;3.42;;;;;;;13.82;100.00;100794.25;5029254;28;20402;-76
2023/09/19 01:31:00;;;;;;;17.77;3.83;;;;;;;13.78;100.00;100795.50;4995814;28;20505;-76
2023/09/19 01:33:26;;;;;;;16.02;3.20;;;;;;;13.73;100.00;100800.34;5011285;28;20022;-76
2023/09/19 01:35:52;;;;;;;16.00;3.92;;;;;;;13.71;100.00;100803.16;5020153;28;20048;-75
2023/09/19 01:38:20;;;;;;;11.88;3.70;;;;;;;13.71;100.00;100802.31;5046762;28;20021;-78
2023/09/19 01:41:03;;;;;;;14.38;3.63;;;;;;;13.69;100.00;100810.38;5033332;28;20363;-78
2023/09/19 01:43:42;;;;;;;15.85;3.60;;;;;;;13.71;100.00;100813.72;5033276;28;20045;-76
2023/09/19 01:46:19;;;;;;;14.98;3.95;;;;;;;13.68;100.00;100814.00;5033778;28;20029;-76
2023/09/19 01:49:02;;;;;;;15.55;3.50;;;;;;;13.68;100.00;100803.41;5034189;28;20496;-76
2023/09/19 01:51:59;;;;;;;16.88;3.30;;;;;;;13.68;100.00;100808.69;5030835;28;20076;-76
2023/09/19 01:54:30;;;;;;;13.75;3.42;;;;;;;13.64;100.00;100817.88;5025245;28;20033;-76
2023/09/19 01:56:55;;;;;;;13.40;3.60;;;;;;;13.63;100.00;100812.72;5012781;28;20030;-78
2023/09/19 01:59:33;;;;;;;15.05;3.50;;;;;;;13.61;100.00;100807.56;5032112;28;20028;-76
2023/09/19 02:02:00;;;;;;;9.43;2.85;;;;;;;13.58;100.00;100806.97;5031673;28;20025;-75
2023/09/19 02:04:26;;;;;;;12.98;3.35;;;;;;;13.58;100.00;100805.16;5031484;28;20013;-75
2023/09/19 02:06:55;;;;;;;19.05;3.95;;;;;;;13.56;100.00;100806.28;5030152;28;20076;-77
2023/09/19 02:09:21;;;;;;;17.10;3.50;;;;;;;13.55;100.00;100797.50;5027439;28;20386;-75
2023/09/19 02:11:46;;;;;;;19.05;3.92;;;;;;;13.54;100.00;100806.41;5013120;28;20026;-77
2023/09/19 02:14:13;;;;;;;14.05;3.33;;;;;;;13.51;100.00;100803.19;5046943;28;20436;-75
2023/09/19 02:16:39;;;;;;;14.57;3.60;;;;;;;13.51;100.00;100797.91;5031355;28;20032;-75
2023/09/19 02:19:05;;;;;;;13.02;3.35;;;;;;;13.49;100.00;100806.81;5030410;28;20034;-76
2023/09/19 02:21:31;;;;;;;15.25;3.50;;;;;;;13.47;100.00;100800.81;5030841;28;20029;-75
2023/09/19 02:23:58;;;;;;;12.02;3.20;;;;;;;13.45;100.00;100804.56;5027869;28;20457;-75
2023/09/19 02:26:24;;;;;;;13.23;3.35;;;;;;;13.40;100.00;100804.13;5026445;28;20029;-75
2023/09/19 02:28:49;;;;;;;14.18;3.15;;;;;;;13.40;100.00;100818.19;5028886;28;20036;-76
2023/09/19 02:31:16;;;;;;;13.55;3.17;;;;;;;13.37;99.71;100820.25;5028273;28;20561;-75
2023/09/19 02:33:42;;;;;;;13.68;3.25;;;;;;;13.35;99.82;100822.19;5028171;28;20102;-78
2023/09/19 02:36:08;;;;;;;13.63;3.50;;;;;;;13.32;99.76;100828.59;5029314;28;20064;-76
2023/09/19 02:38:33;;;;;;;13.75;3.10;;;;;;;13.30;99.69;100819.94;5028290;28;20052;-78
2023/09/19 02:40:59;;;;;;;11.93;3.22;;;;;;;13.26;98.76;100823.00;5029319;28;20663;-75
2023/09/19 02:43:25;;;;;;;13.32;3.38;;;;;;;13.26;99.23;100817.69;5028072;28;20438;-75
2023/09/19 02:45:53;;;;;;;12.70;3.55;;;;;;;13.26;99.67;100823.00;5011195;28;20403;-76
2023/09/19 02:48:18;;;;;;;11.63;3.20;;;;;;;13.22;98.26;100816.28;5015417;28;20021;-76
2023/09/19 02:50:44;;;;;;;11.23;3.20;;;;;;;13.20;98.87;100823.47;5031205;28;20492;-76
2023/09/19 02:53:12;;;;;;;12.30;3.25;;;;;;;13.23;98.16;100825.91;5030622;28;20036;-75
2023/09/19 02:55:39;;;;;;;11.85;3.20;;;;;;;13.18;98.36;100819.16;5027691;28;20534;-75
2023/09/19 02:58:07;;;;;;;15.55;3.35;;;;;;;13.17;98.89;100825.44;5031291;28;20025;-78
2023/09/19 03:00:34;;;;;;;13.70;3.28;;;;;;;13.15;98.73;100821.22;5026804;28;20030;-75
2023/09/19 03:02:59;;;;;;;14.60;3.80;;;;;;;13.10;98.33;100829.53;5029063;28;20033;-75
2023/09/19 03:05:26;;;;;;;12.00;2.95;;;;;;;13.09;97.52;100827.84;5041085;28;20500;-77
2023/09/19 03:07:51;;;;;;;13.40;2.95;;;;;;;13.09;97.00;100829.66;5029880;28;20037;-75
2023/09/19 03:10:20;;;;;;;10.88;3.50;;;;;;;13.06;98.35;100836.03;5030928;28;20029;-76
2023/09/19 03:12:47;;;;;;;11.32;3.05;;;;;;;13.06;98.16;100828.13;5034314;28;20032;-76
2023/09/19 03:15:18;;;;;;;11.25;3.22;;;;;;;13.05;96.61;100831.72;5033161;28;20117;-75
2023/09/19 03:17:50;;;;;;;13.00;3.28;;;;;;;13.05;97.02;100826.44;5020259;28;20036;-74
2023/09/19 03:20:20;;;;;;;12.68;3.35;;;;;;;13.04;97.10;100822.13;5029851;28;20389;-75
2023/09/19 03:22:46;;;;;;;10.30;2.78;;;;;;;13.04;97.74;100827.41;5029376;28;20151;-75
2023/09/19 03:25:11;;;;;;;11.07;3.50;;;;;;;13.05;96.78;100829.09;5026480;28;20056;-75
2023/09/19 03:27:41;;;;;;;8.68;3.00;;;;;;;13.03;97.20;100831.03;5029147;28;20025;-75
2023/09/19 03:30:13;;;;;;;8.52;2.92;;;;;;;13.02;97.61;100832.00;5029483;28;20112;-76
2023/09/19 03:32:45;;;;;;;10.73;3.45;;;;;;;13.03;97.52;100832.81;5028558;28;20030;-75
2023/09/19 03:35:13;;;;;;;13.55;3.28;;;;;;;13.02;97.56;100821.41;5033297;28;20029;-76
2023/09/19 03:37:39;;;;;;;10.45;2.90;;;;;;;13.02;97.73;100820.59;5022557;28;20026;-76
2023/09/19 03:40:07;;;;;;;12.38;3.42;;;;;;;13.03;97.20;100827.53;5037850;28;20045;-78
2023/09/19 03:42:32;;;;;;;16.13;4.10;;;;;;;13.03;97.07;100828.38;5035309;28;20033;-76
2023/09/19 03:45:00;;;;;;;11.85;3.00;;;;;;;13.04;98.84;100824.78;5035531;28;20048;-77
2023/09/19 03:47:26;;;;;;;12.43;3.25;;;;;;;13.06;98.29;100817.56;5034435;28;20473;-77
2023/09/19 03:49:52;;;;;;;13.50;3.88;;;;;;;13.06;98.45;100809.63;5037237;28;20188;-75
2023/09/19 03:52:17;;;;;;;13.85;3.38;;;;;;;13.08;98.54;100820.91;5035487;28;20056;-77
2023/09/19 03:54:45;;;;;;;12.20;3.35;;;;;;;13.08;98.27;100810.34;5035472;28;20073;-78
2023/09/19 03:57:15;;;;;;;13.68;3.20;;;;;;;13.08;98.88;100815.63;5031001;28;20079;-76
2023/09/19 03:59:42;;;;;;;14.75;3.13;;;;;;;13.11;98.92;100811.88;5031202;28;20028;-76
2023/09/19 04:02:21;;;;;;;13.23;3.58;;;;;;;13.12;99.20;100817.03;5035590;28;20043;-75
2023/09/19 04:04:47;;;;;;;15.80;3.42;;;;;;;13.12;99.18;100817.03;5039261;28;20030;-76
2023/09/19 04:07:12;;;;;;;13.98;3.80;;;;;;;13.16;98.69;100818.44;5027501;28;20086;-75
2023/09/19 04:09:42;;;;;;;16.52;3.42;;;;;;;13.17;98.60;100812.22;5037650;28;20032;-76
2023/09/19 04:12:11;;;;;;;9.02;3.00;;;;;;;13.18;99.47;100811.25;5036292;28;20037;-75
2023/09/19 04:14:36;;;;;;;12.38;3.47;;;;;;;13.19;99.36;100814.72;5038672;28;20392;-75
2023/09/19 04:17:02;;;;;;;14.65;3.25;;;;;;;13.20;99.67;100810.28;5034962;28;20108;-77
2023/09/19 04:19:27;;;;;;;10.85;3.10;;;;;;;13.21;99.67;100817.22;5035057;28;20033;-77
2023/09/19 04:21:53;;;;;;;15.00;3.53;;;;;;;13.21;99.67;100825.16;5028457;28;20064;-75
2023/09/19 04:24:19;;;;;;;15.23;4.03;;;;;;;13.22;99.64;100826.88;5025969;28;20021;-75
2023/09/19 04:26:45;;;;;;;16.10;3.47;;;;;;;13.20;100.00;100839.34;5028068;28;20021;-75
2023/09/19 04:29:11;;;;;;;12.40;3.50;;;;;;;13.23;99.68;100845.22;5025851;28;20088;-75
2023/09/19 04:31:37;;;;;;;13.90;3.53;;;;;;;13.22;99.77;100842.72;5010525;28;20030;-75
2023/09/19 04:34:03;;;;;;;14.05;3.67;;;;;;;13.21;100.00;100846.28;5027304;28;20522;-75
2023/09/19 04:36:31;;;;;;;13.30;3.67;;;;;;;13.21;100.00;100856.88;5045264;28;20136;-75
2023/09/19 04:38:57;;;;;;;9.23;3.13;;;;;;;13.23;100.00;100860.25;5029319;28;20024;-76
2023/09/19 04:41:24;;;;;;;15.52;3.53;;;;;;;13.26;100.00;100865.28;5028629;28;20021;-76
2023/09/19 04:43:50;;;;;;;13.98;3.30;;;;;;;13.27;100.00;100870.41;5026830;28;20132;-78
2023/09/19 04:46:20;;;;;;;14.50;3.60;;;;;;;13.31;100.00;100871.00;5045319;28;20037;-75
2023/09/19 04:48:45;;;;;;;10.15;3.00;;;;;;;13.32;100.00;100881.44;5029939;28;20076;-75
2023/09/19 04:51:11;;;;;;;13.85;3.75;;;;;;;13.34;100.00;100873.38;5029385;28;20052;-76
2023/09/19 04:53:36;;;;;;;13.60;3.30;;;;;;;13.37;100.00;100889.81;5029575;28;20028;-78
2023/09/19 04:56:03;;;;;;;11.98;3.50;;;;;;;13.38;100.00;100891.47;5029784;28;20021;-78
2023/09/19 04:58:29;;;;;;;9.90;2.97;;;;;;;13.41;100.00;100898.31;5025356;28;20033;-74
2023/09/19 05:00:54;;;;;;;15.20;3.50;;;;;;;13.40;100.00;100889.53;5027322;28;20025;-75
2023/09/19 05:03:20;;;;;;;12.63;3.42;;;;;;;13.41;100.00;100901.78;5028387;28;20176;-74
2023/09/19 05:05:46;;;;;;;12.40;3.40;;;;;;;13.42;99.76;100892.06;5028801;28;20022;-77
2023/09/19 05:08:14;;;;;;;13.15;3.10;;;;;;;13.41;99.95;100899.16;5029167;28;20489;-75
2023/09/19 05:10:40;;;;;;;15.00;3.45;;;;;;;13.40;100.00;100901.91;5030868;28;20103;-75
2023/09/19 05:13:07;;;;;;;12.10;3.25;;;;;;;13.42;100.00;100892.06;5034229;28;20021;-75
2023/09/19 05:15:32;;;;;;;10.73;2.90;;;;;;;13.41;100.00;100895.66;5012456;28;20036;-78
2023/09/19 05:17:57;;;;;;;13.65;3.20;;;;;;;13.40;100.00;100894.81;5013714;28;20022;-75
2023/09/19 05:20:29;;;;;;;16.10;3.67;;;;;;;13.39;100.00;100897.59;5011808;28;20022;-75
2023/09/19 05:23:12;;;;;;;12.27;3.25;;;;;;;13.40;100.00;100900.13;5023362;28;20074;-78
2023/09/19 05:25:40;;;;;;;10.68;2.97;;;;;;;13.38;100.00;100907.34;5032460;28;20405;-77
2023/09/19 05:28:07;;;;;;;13.05;3.30;;;;;;;13.40;100.00;100910.69;5025795;28;20029;-75
2023/09/19 05:30:33;;;;;;;15.00;3.65;;;;;;;13.39;100.00;100900.25;5024540;28;20032;-75
2023/09/19 05:32:59;;;;;;;11.95;3.58;;;;;;;13.39;100.00;100908.19;5028256;28;20127;-75
2023/09/19 05:35:26;;;;;;;12.43;3.22;;;;;;;13.39;100.00;100903.72;5012512;28;20498;-77
2023/09/19 05:37:52;;;;;;;15.32;3.33;;;;;;;13.39;100.00;100902.88;5018510;28;20032;-77
2023/09/19 05:40:19;;;;;;;9.48;2.78;;;;;;;13.38;100.00;100909.16;5032322;28;20515;-75
2023/09/19 05:42:45;;;;;;;10.45;3.03;;;;;;;13.37;100.00;100915.41;5030466;28;20052;-77
2023/09/19 05:45:13;;;;;;;15.18;3.47;;;;;;;13.37;100.00;100910.09;5032682;28;20037;-75
2023/09/19 05:47:42;;;;;;;11.65;3.00;;;;;;;13.38;100.00;100917.91;5028817;28;20386;-75
2023/09/19 05:50:08;;;;;;;12.55;3.13;;;;;;;13.39;100.00;100910.81;5013436;28;20037;-76
2023/09/19 05:52:34;;;;;;;15.88;3.75;;;;;;;13.38;100.00;100901.22;5021628;28;20025;-78
2023/09/19 05:54:59;;;;;;;15.13;3.72;;;;;;;13.38;100.00;100893.28;5032304;28;20045;-76
2023/09/19 05:57:25;;;;;;;9.85;2.83;;;;;;;13.40;100.00;100894.81;5033246;28;20432;-75
2023/09/19 05:59:50;;;;;;;11.43;3.10;;;;;;;13.43;100.00;100891.09;5030571;28;20029;-75
2023/09/19 06:02:20;;;;;;;13.13;3.58;;;;;;;13.44;100.00;100890.13;5030025;28;20020;-78
2023/09/19 06:04:45;;;;;;;14.27;3.67;;;;;;;13.45;100.00;100899.72;5030801;28;20386;-79
2023/09/19 06:07:12;;;;;;;14.10;3.35;;;;;;;13.44;100.00;100901.53;5012572;28;20033;-78
2023/09/19 06:09:38;;;;;;;16.33;3.40;;;;;;;13.45;100.00;100897.91;5029179;28;20040;-76
2023/09/19 06:12:04;;;;;;;12.13;3.13;;;;;;;13.48;100.00;100891.53;5031089;28;20029;-78
2023/09/19 06:14:30;;;;;;;13.60;3.50;;;;;;;13.49;100.00;100898.50;5031532;28;20104;-75
2023/09/19 06:16:56;;;;;;;12.95;3.35;;;;;;;13.53;100.00;100905.19;5030823;28;20096;-76
2023/09/19 06:19:22;;;;;;;17.10;3.95;;;;;;;13.54;100.00;100906.84;5028782;28;20152;-77
2023/09/19 06:21:48;;;;;;;13.93;3.25;;;;;;;13.56;100.00;100909.38;5025935;28;20025;-75
2023/09/19 06:24:13;;;;;;;15.98;3.70;;;;;;;13.57;100.00;100908.41;5030482;28;20025;-76
2023/09/19 06:26:39;;;;;;;17.13;3.95;;;;;;;13.59;100.00;100912.59;5030668;28;20022;-77
2023/09/19 06:29:07;;;;;;;15.93;4.13;;;;;;;13.60;100.00;100921.34;5029733;28;20040;-76
2023/09/19 06:31:32;;;;;;;15.05;3.72;;;;;;;13.60;100.00;100930.13;5046245;28;20025;-76
2023/09/19 06:33:58;;;;;;;16.92;3.55;;;;;;;13.63;100.00;100921.13;5046041;28;20047;-77
2023/09/19 06:36:24;;;;;;;13.73;3.25;;;;;;;13.66;100.00;100926.97;5029695;28;20040;-76
2023/09/19 06:38:53;;;;;;;15.18;3.70;;;;;;;13.66;100.00;100929.63;5043485;28;20623;-76
2023/09/19 06:41:19;;;;;;;11.70;3.40;;;;;;;13.71;100.00;100935.34;5030028;28;20030;-76
2023/09/19 06:43:44;;;;;;;15.88;3.55;;;;;;;13.74;100.00;100937.72;5027697;28;20529;-76
2023/09/19 06:46:10;;;;;;;12.75;3.50;;;;;;;13.75;100.00;100936.78;5032062;28;20033;-76
2023/09/19 06:48:35;;;;;;;12.77;3.60;;;;;;;13.78;100.00;100931.22;5031659;28;20036;-76
2023/09/19 06:51:05;;;;;;;16.23;3.60;;;;;;;13.84;100.00;100944.88;5015610;28;20514;-75
2023/09/19 06:53:35;;;;;;;14.43;3.67;;;;;;;13.85;100.00;100936.81;5011282;28;20390;-78
2023/09/19 06:56:06;;;;;;;14.38;4.20;;;;;;;13.91;100.00;100948.66;5026518;28;20034;-78
2023/09/19 06:58:32;;;;;;;15.68;3.38;;;;;;;13.94;100.00;100929.88;5024371;28;20374;-78
2023/09/19 07:00:58;;;;;;;14.20;3.88;;;;;;;13.98;100.00;100941.88;5027133;28;20108;-78
2023/09/19 07:03:28;;;;;;;15.48;3.63;;;;;;;14.00;100.00;100942.56;5019815;28;20014;-76
2023/09/19 07:05:55;;;;;;;14.57;3.58;;;;;;;14.03;100.00;100940.53;5019937;28;20457;-76
2023/09/19 07:08:25;;;;;;;14.52;3.58;;;;;;;14.04;100.00;100936.06;5022116;28;20033;-78
2023/09/19 07:10:54;;;;;;;18.98;4.15;;;;;;;14.08;100.00;100937.47;5023343;28;20437;-75
2023/09/19 07:13:19;;;;;;;11.90;3.42;;;;;;;14.09;100.00;100942.63;5021284;28;20018;-76
2023/09/19 07:15:49;;;;;;;13.32;3.28;;;;;;;14.14;100.00;100946.69;5022003;28;20033;-76
2023/09/19 07:18:17;;;;;;;16.05;4.20;;;;;;;14.17;100.00;100952.53;5024625;28;20029;-75
2023/09/19 07:20:49;;;;;;;16.10;3.33;;;;;;;14.23;100.00;100953.81;5024090;28;20120;-79
2023/09/19 07:23:16;;;;;;;14.63;4.10;;;;;;;14.26;100.00;100948.25;5027295;28;20026;-76
2023/09/19 07:25:41;;;;;;;20.77;4.13;;;;;;;14.30;100.00;100936.41;5036080;28;20440;-78
2023/09/19 07:28:07;;;;;;;14.23;3.45;;;;;;;14.32;100.00;100945.06;5029270;28;20119;-76
2023/09/19 07:30:37;;;;;;;20.65;4.32;;;;;;;14.36;100.00;100942.00;5023237;28;20061;-76
2023/09/19 07:33:05;;;;;;;18.60;3.53;;;;;;;14.45;100.00;100934.28;5030129;28;20036;-75
2023/09/19 07:35:32;;;;;;;14.15;3.63;;;;;;;14.54;100.00;100941.38;5029334;28;20029;-76
2023/09/19 07:37:58;;;;;;;12.85;3.58;;;;;;;14.65;100.00;100935.97;5030239;28;20363;-76
2023/09/19 07:40:26;;;;;;;16.67;3.58;;;;;;;14.70;100.00;100939.03;5030681;28;20560;-78
2023/09/19 07:42:52;;;;;;;13.20;3.72;;;;;;;14.83;99.95;100944.91;5029932;28;20025;-78
2023/09/19 07:45:18;;;;;;;13.48;3.30;;;;;;;14.91;100.00;100937.09;5029970;28;20029;-75
2023/09/19 07:47:45;;;;;;;18.77;3.63;;;;;;;15.05;99.55;100944.63;5027198;28;20035;-77
2023/09/19 07:50:11;;;;;;;14.55;3.88;;;;;;;15.12;99.28;100949.38;5028763;28;20036;-78
2023/09/19 07:52:39;;;;;;;13.40;4.32;;;;;;;15.19;97.89;100946.00;5024433;28;20033;-79
2023/09/19 07:55:08;;;;;;;16.55;3.67;;;;;;;15.26;97.64;100951.59;5020538;28;20161;-77
2023/09/19 07:57:37;;;;;;;14.02;3.80;;;;;;;15.34;97.18;100946.44;5030782;28;20031;-76
2023/09/19 08:00:04;;;;;;;13.43;3.42;;;;;;;15.40;96.02;100945.84;5029706;28;20021;-75
2023/09/19 08:02:34;;;;;;;14.77;3.40;;;;;;;15.52;97.25;100942.06;5029545;28;20099;-75
2023/09/19 08:05:00;;;;;;;16.58;3.58;;;;;;;15.59;94.52;100950.31;5030174;28;20033;-76
2023/09/19 08:07:25;;;;;;;16.67;3.80;;;;;;;15.71;95.43;100951.00;5026388;28;20025;-76
2023/09/19 08:09:51;;;;;;;15.60;3.70;;;;;;;15.80;95.67;100960.75;5036757;28;20432;-76
2023/09/19 08:12:16;;;;;;;14.55;3.53;;;;;;;15.88;93.57;100964.34;5028723;28;20145;-75
2023/09/19 08:14:42;;;;;;;15.10;3.95;;;;;;;15.90;93.91;100948.28;5027928;28;20017;-74
2023/09/19 08:17:10;;;;;;;12.82;3.88;;;;;;;15.99;94.26;100950.88;5028497;28;20056;-75
2023/09/19 08:19:36;;;;;;;10.27;3.00;;;;;;;16.04;93.74;100947.81;5023699;28;20117;-75
2023/09/19 08:22:02;;;;;;;12.80;3.33;;;;;;;16.08;92.96;100946.53;5007051;28;20033;-75
2023/09/19 08:24:29;;;;;;;14.90;3.40;;;;;;;16.23;93.43;100955.69;5027002;28;20525;-76
2023/09/19 08:26:55;;;;;;;12.05;2.83;;;;;;;16.37;92.11;100943.72;5040781;28;20383;-77
2023/09/19 08:29:21;;;;;;;14.35;3.20;;;;;;;16.45;90.42;100945.66;5030062;28;20025;-75
2023/09/19 08:31:49;;;;;;;16.40;3.88;;;;;;;16.47;90.84;100949.00;5028383;28;20075;-76
2023/09/19 08:34:15;;;;;;;13.35;3.53;;;;;;;16.53;89.15;100948.38;5028369;28;20017;-75
2023/09/19 08:36:42;;;;;;;12.80;3.22;;;;;;;16.66;89.69;100946.22;5032289;28;20029;-76
2023/09/19 08:39:08;;;;;;;14.10;4.03;;;;;;;16.74;88.16;100946.31;5026353;28;20490;-76
2023/09/19 08:41:34;;;;;;;13.13;3.17;;;;;;;16.73;88.13;100949.13;5027942;28;20036;-75
2023/09/19 08:44:01;;;;;;;10.63;3.08;;;;;;;16.76;89.58;100954.13;5024996;28;20037;-74
2023/09/19 08:46:31;;;;;;;12.10;3.00;;;;;;;16.77;88.39;100955.78;5029537;28;20029;-75
2023/09/19 08:49:08;;;;;;;13.02;3.30;;;;;;;16.85;88.70;100956.75;5029696;28;20032;-75
2023/09/19 08:51:48;;;;;;;17.38;3.92;;;;;;;16.87;87.02;100952.09;5032038;28;20033;-75
2023/09/19 08:54:29;;;;;;;15.93;4.30;;;;;;;16.92;87.44;100949.81;5033178;28;20017;-75
2023/09/19 08:56:59;;;;;;;14.98;3.83;;;;;;;17.05;87.22;100961.88;5031498;28;20025;-75
2023/09/19 08:59:26;;;;;;;17.23;3.83;;;;;;;17.19;85.30;100956.03;5030306;28;20021;-76
2023/09/19 09:01:53;;;;;;;17.15;3.40;;;;;;;17.31;87.40;100957.47;5032502;28;20035;-76
2023/09/19 09:04:20;;;;;;;11.20;3.30;;;;;;;17.53;84.97;100943.66;5032153;28;20022;-76
2023/09/19 09:06:48;;;;;;;15.73;3.75;;;;;;;17.65;85.50;100946.06;5039657;28;20028;-76
2023/09/19 09:09:14;;;;;;;9.68;2.78;;;;;;;17.80;84.97;100944.53;5031585;28;20596;-76
2023/09/19 09:11:41;;;;;;;11.38;3.33;;;;;;;17.81;84.13;100943.53;5032323;28;20048;-76
2023/09/19 09:14:07;;;;;;;14.20;4.28;;;;;;;17.82;82.33;100954.03;5031261;28;20470;-75
2023/09/19 09:16:34;;;;;;;16.65;3.72;;;;;;;17.92;83.28;100953.06;5032599;28;20025;-75
2023/09/19 09:18:59;;;;;;;14.20;3.75;;;;;;;18.04;81.77;100947.31;5002596;28;20116;-75
2023/09/19 09:21:27;;;;;;;13.27;3.42;;;;;;;18.11;82.15;100950.19;5031869;28;20624;-75
2023/09/19 09:23:53;;;;;;;14.30;3.55;;;;;;;18.08;79.78;100951.34;5029820;28;20028;-76
2023/09/19 09:26:42;;;;;;;15.43;3.83;;;;;;;18.20;81.86;100954.53;5031195;28;20116;-74
2023/09/19 09:29:08;;;;;;;11.25;3.22;;;;;;;18.37;81.14;100955.44;5025799;28;20017;-74
2023/09/19 09:31:33;;;;;;;13.57;3.13;;;;;;;18.56;80.07;100943.69;5030996;28;20021;-75
2023/09/19 09:33:59;;;;;;;12.75;3.35;;;;;;;18.51;77.97;100948.66;5029977;28;20024;-75
2023/09/19 09:36:38;;;;;;;14.27;4.10;;;;;;;18.48;78.92;100931.16;5031059;28;20039;-75
2023/09/19 09:39:15;;;;;;;16.30;3.05;;;;;;;18.33;78.70;100933.59;5031301;28;20061;-75
2023/09/19 09:41:42;;;;;;;11.35;3.22;;;;;;;18.28;78.23;100925.25;5030055;28;20039;-75
2023/09/19 09:44:18;;;;;;;11.60;3.08;;;;;;;18.41;78.01;100930.13;5028321;28;20046;-76
2023/09/19 09:49:32;;;;;;;13.50;3.28;;;;;;;18.56;77.29;100917.84;5030945;28;20119;-76
2023/09/19 09:52:08;;;;;;;11.38;3.35;;;;;;;19.17;75.79;100921.09;5030428;28;20048;-76
2023/09/19 09:54:41;;;;;;;12.75;3.35;;;;;;;19.29;74.22;100923.28;5046943;28;20513;-74
2023/09/19 09:57:16;;;;;;;12.85;2.97;;;;;;;19.16;74.66;100941.59;5031363;28;20473;-75
2023/09/19 10:02:39;;;;;;;10.55;2.67;;;;;;;19.13;72.04;100939.28;5029966;28;20034;-77
2023/09/19 10:05:43;;;;;;;10.80;3.20;;;;;;;19.00;74.29;100933.59;5031809;28;20036;-76
2023/09/19 10:08:12;;;;;;;10.30;3.13;;;;;;;19.02;75.95;100940.44;5035608;28;20045;-76
2023/09/19 10:13:12;;;;;;;9.80;2.90;;;;;;;18.81;73.15;100937.41;5031390;28;20057;-77
2023/09/19 10:15:38;;;;;;;11.10;3.05;;;;;;;18.84;73.69;100936.28;5029530;28;20021;-78
2023/09/19 10:18:08;;;;;;;11.70;3.50;;;;;;;18.84;73.66;100938.94;5021825;28;20026;-79
2023/09/19 10:20:38;;;;;;;15.20;3.40;;;;;;;18.75;73.86;100935.41;5031028;28;20022;-76
2023/09/19 10:23:09;;;;;;;11.82;3.13;;;;;;;18.62;74.37;100913.72;5026578;28;20034;-76
2023/09/19 10:25:37;;;;;;;13.23;3.35;;;;;;;18.70;74.03;100921.75;5030086;28;20037;-77
2023/09/19 10:28:10;;;;;;;11.63;3.20;;;;;;;18.70;75.67;100925.25;5028989;28;20033;-77
2023/09/19 10:30:38;;;;;;;13.70;3.05;;;;;;;18.78;76.21;100916.41;5028139;28;20092;-77
2023/09/19 10:33:08;;;;;;;13.38;3.13;;;;;;;18.83;74.01;100926.59;5029335;28;20026;-76
2023/09/19 10:35:37;;;;;;;11.98;2.92;;;;;;;18.97;72.54;100937.44;5027663;28;20025;-75
2023/09/19 10:38:03;;;;;;;9.55;2.65;;;;;;;19.04;70.88;100930.44;5035524;28;20044;-77
2023/09/19 10:40:32;;;;;;;11.52;3.22;;;;;;;19.17;71.26;100929.09;5030240;28;20434;-76
2023/09/19 10:43:06;;;;;;;10.70;2.90;;;;;;;19.21;72.96;100933.09;5027278;28;20044;-78
2023/09/19 10:45:34;;;;;;;12.27;3.35;;;;;;;19.34;72.95;100936.94;5027668;28;20065;-75
2023/09/19 10:48:05;;;;;;;10.98;3.20;;;;;;;19.37;70.77;100931.28;5029334;28;20075;-74
2023/09/19 10:50:36;;;;;;;10.55;2.85;;;;;;;19.56;70.55;100923.91;5029720;28;20037;-74
2023/09/19 10:53:06;;;;;;;12.75;3.05;;;;;;;19.67;69.78;100918.25;5017904;28;20029;-74
2023/09/19 10:55:33;;;;;;;9.60;2.53;;;;;;;19.69;67.22;100913.56;5024736;28;20017;-74
2023/09/19 10:58:00;;;;;;;10.43;3.03;;;;;;;19.74;67.67;100916.56;5030170;28;20029;-74
2023/09/19 11:00:28;;;;;;;11.80;3.00;;;;;;;19.84;66.92;100917.19;5030738;28;20080;-74
2023/09/19 11:03:12;;;;;;;11.52;2.90;;;;;;;20.00;68.45;100916.28;5029385;28;20024;-74
2023/09/19 11:05:40;;;;;;;10.57;2.53;;;;;;;19.93;65.77;100900.13;5030140;28;20029;-74
2023/09/19 11:08:12;;;;;;;8.07;2.70;;;;;;;19.83;66.01;100891.47;5037541;28;20021;-74
2023/09/19 11:10:48;;;;;;;11.88;2.78;;;;;;;19.90;67.10;100876.44;5029067;28;20033;-74
2023/09/19 11:13:31;;;;;;;9.30;2.40;;;;;;;19.98;67.62;100886.25;5030312;28;20096;-73
2023/09/19 11:15:57;;;;;;;9.45;2.42;;;;;;;20.05;64.41;100887.25;5033715;28;20547;-77
2023/09/19 11:18:40;;;;;;;6.55;2.20;;;;;;;20.15;66.22;100876.34;5029259;28;20025;-77
2023/09/19 11:21:33;;;;;;;10.60;2.28;;;;;;;20.22;67.23;100871.94;5030334;28;20083;-79
2023/09/19 11:24:22;;;;;;;8.18;2.53;;;;;;;20.34;66.95;100876.72;5026388;28;20182;-77
2023/09/19 11:26:48;;;;;;;8.98;2.35;;;;;;;20.35;63.31;100866.84;5022503;28;20037;-78
2023/09/19 11:29:31;;;;;;;8.90;2.63;;;;;;;20.38;65.46;100865.66;5027785;28;20021;-77